createdAt,value
2017-11-06T00:00:05.188Z,82.71
2017-11-06T00:01:15.599Z,82.9
2017-11-06T00:02:25.998Z,82.81
2017-11-06T00:03:36.402Z,83
2017-11-06T00:04:46.467Z,82.81
2017-11-06T00:05:56.896Z,82.81
2017-11-06T00:07:06.309Z,82.81
2017-11-06T00:08:16.408Z,83
2017-11-06T00:09:26.489Z,83.09
2017-11-06T00:10:36.565Z,82.9
2017-11-06T00:11:47.018Z,82.9
2017-11-06T00:12:57.101Z,82.9
2017-11-06T00:14:07.193Z,83
2017-11-06T00:15:17.605Z,83
2017-11-06T00:16:28.019Z,82.9
2017-11-06T00:17:39.389Z,83.09
2017-11-06T00:18:50.784Z,83.09
2017-11-06T00:20:00.878Z,82.71
2017-11-06T00:21:10.961Z,82.71
2017-11-06T00:22:21.035Z,82.71
2017-11-06T00:23:31.495Z,82.71
2017-11-06T00:24:41.904Z,82.9
2017-11-06T00:25:52.317Z,83.09
2017-11-06T00:27:02.729Z,83.09
2017-11-06T00:28:13.133Z,82.71
2017-11-06T00:29:23.541Z,82.71
2017-11-06T00:30:33.637Z,83.28
2017-11-06T00:31:44.074Z,82.81
2017-11-06T00:32:54.464Z,82.9
2017-11-06T00:34:04.849Z,83.09
2017-11-06T00:35:15.290Z,82.81
2017-11-06T00:36:25.700Z,82.71
2017-11-06T00:37:35.759Z,82.71
2017-11-06T00:38:45.830Z,82.71
2017-11-06T00:39:56.258Z,82.71
2017-11-06T00:41:06.672Z,82.71
2017-11-06T00:42:17.064Z,82.9
2017-11-06T00:43:27.480Z,82.71
2017-11-06T00:44:37.883Z,82.81
2017-11-06T00:45:48.270Z,82.81
2017-11-06T00:46:58.671Z,82.71
2017-11-06T00:48:09.085Z,82.71
2017-11-06T00:49:19.149Z,82.71
2017-11-06T00:50:29.597Z,82.81
2017-11-06T00:51:40.005Z,82.81
2017-11-06T00:52:50.432Z,83.47
2017-11-06T00:54:00.838Z,83.57
2017-11-06T00:55:11.246Z,83.57
2017-11-06T00:56:21.344Z,82.81
2017-11-06T00:57:31.733Z,83.18
2017-11-06T00:58:42.149Z,82.71
2017-11-06T00:59:52.543Z,82.9
2017-11-06T01:01:02.615Z,82.71
2017-11-06T01:02:13.019Z,82.61
2017-11-06T01:03:23.421Z,83.09
2017-11-06T01:04:33.872Z,82.81
2017-11-06T01:05:43.942Z,83.09
2017-11-06T01:06:54.356Z,82.71
2017-11-06T01:08:04.132Z,82.61
2017-11-06T01:09:14.211Z,82.71
2017-11-06T01:10:24.621Z,82.9
2017-11-06T01:11:35.014Z,83.47
2017-11-06T01:12:45.409Z,83.28
2017-11-06T01:13:55.496Z,82.76
2017-11-06T01:15:05.559Z,83.43
2017-11-06T01:16:15.306Z,83.53
2017-11-06T01:17:25.032Z,83.24
2017-11-06T01:18:35.441Z,83.24
2017-11-06T01:19:45.839Z,83.24
2017-11-06T01:20:55.901Z,83.24
2017-11-06T01:22:06.299Z,83.24
2017-11-06T01:23:16.382Z,82.95
2017-11-06T01:24:26.454Z,83.53
2017-11-06T01:25:36.856Z,83.43
2017-11-06T01:26:47.256Z,83.53
2017-11-06T01:27:57.747Z,83.53
2017-11-06T01:29:08.159Z,83.53
2017-11-06T01:30:18.254Z,83.43
2017-11-06T01:31:28.654Z,83.53
2017-11-06T01:32:38.745Z,83.43
2017-11-06T01:33:48.829Z,83.53
2017-11-06T01:34:59.239Z,83.43
2017-11-06T01:36:09.649Z,82.76
2017-11-06T01:37:20.048Z,82.86
2017-11-06T01:38:30.448Z,82.67
2017-11-06T01:39:40.836Z,82.67
2017-11-06T01:40:50.905Z,82.67
2017-11-06T01:42:00.959Z,83.14
2017-11-06T01:43:11.033Z,82.86
2017-11-06T01:44:21.462Z,82.86
2017-11-06T01:45:31.912Z,82.67
2017-11-06T01:46:42.326Z,82.86
2017-11-06T01:47:52.741Z,82.76
2017-11-06T01:49:03.151Z,82.86
2017-11-06T01:50:13.549Z,82.95
2017-11-06T01:51:23.634Z,82.95
2017-11-06T01:52:33.703Z,82.76
2017-11-06T01:53:44.107Z,82.76
2017-11-06T01:54:54.509Z,83.09
2017-11-06T01:56:04.901Z,82.95
2017-11-06T01:57:15.023Z,82.86
2017-11-06T01:58:25.419Z,82.86
2017-11-06T01:59:35.814Z,82.61
2017-11-06T02:00:46.216Z,83.14
2017-11-06T02:01:56.606Z,83.05
2017-11-06T02:03:07.037Z,83.05
2017-11-06T02:04:17.427Z,82.95
2017-11-06T02:05:28.739Z,83
2017-11-06T02:06:39.991Z,83.05
2017-11-06T02:07:49.754Z,82.61
2017-11-06T02:09:00.214Z,83.05
2017-11-06T02:10:10.606Z,83.05
2017-11-06T02:11:21.005Z,83.14
2017-11-06T02:12:31.405Z,82.57
2017-11-06T02:13:41.826Z,82.57
2017-11-06T02:14:52.280Z,82.86
2017-11-06T02:16:02.670Z,82.86
2017-11-06T02:17:13.067Z,82.95
2017-11-06T02:18:23.460Z,82.76
2017-11-06T02:19:33.864Z,82.95
2017-11-06T02:20:44.273Z,83.05
2017-11-06T02:21:54.671Z,83.14
2017-11-06T02:23:05.083Z,83.05
2017-11-06T02:24:15.478Z,83.14
2017-11-06T02:25:25.899Z,82.86
2017-11-06T02:26:36.486Z,82.52
2017-11-06T02:27:46.230Z,83.09
2017-11-06T02:28:56.645Z,82.52
2017-11-06T02:30:07.075Z,82.42
2017-11-06T02:31:17.489Z,82.48
2017-11-06T02:32:27.616Z,83.34
2017-11-06T02:33:38.119Z,82.52
2017-11-06T02:34:47.871Z,82.76
2017-11-06T02:35:58.288Z,82.52
2017-11-06T02:37:08.695Z,82.38
2017-11-06T02:38:19.166Z,82.38
2017-11-06T02:39:29.577Z,82.48
2017-11-06T02:40:39.971Z,83.14
2017-11-06T02:41:50.399Z,82.86
2017-11-06T02:43:00.834Z,82.76
2017-11-06T02:44:11.242Z,83.14
2017-11-06T02:45:21.306Z,83.14
2017-11-06T02:46:31.734Z,82.76
2017-11-06T02:47:42.179Z,83.34
2017-11-06T02:48:52.586Z,82.76
2017-11-06T02:50:03.034Z,83.05
2017-11-06T02:51:13.104Z,82.86
2017-11-06T02:52:23.494Z,82.76
2017-11-06T02:53:33.909Z,83.14
2017-11-06T02:54:44.333Z,82.86
2017-11-06T02:55:54.728Z,82.86
2017-11-06T02:57:04.819Z,82.76
2017-11-06T02:58:15.207Z,82.86
2017-11-06T02:59:25.602Z,82.67
2017-11-06T03:00:36.003Z,82.76
2017-11-06T03:01:45.789Z,82.86
2017-11-06T03:32:58.146Z,79.8
2017-11-06T03:34:08.567Z,80.18
2017-11-06T03:35:18.965Z,81.51
2017-11-06T03:36:29.358Z,81.98
2017-11-06T03:37:39.434Z,81.89
2017-11-06T03:38:49.179Z,82.56
2017-11-06T03:39:59.573Z,82.84
2017-11-06T03:41:09.648Z,83.26
2017-11-06T03:42:19.719Z,83.17
2017-11-06T03:43:30.118Z,83.65
2017-11-06T03:44:40.575Z,83.65
2017-11-06T03:45:50.972Z,83.65
2017-11-06T03:47:01.061Z,83.78
2017-11-06T03:48:11.444Z,83.5
2017-11-06T03:49:21.205Z,83.4
2017-11-06T03:50:31.640Z,83.21
2017-11-06T03:51:42.027Z,83.44
2017-11-06T03:52:52.436Z,83.83
2017-11-06T03:54:02.843Z,83.35
2017-11-06T03:55:12.900Z,83.44
2017-11-06T03:56:22.643Z,83.54
2017-11-06T03:57:32.722Z,83.35
2017-11-06T03:58:43.160Z,83.39
2017-11-06T03:59:53.567Z,83.39
2017-11-06T04:01:03.962Z,83.2
2017-11-06T04:02:14.366Z,82.72
2017-11-06T04:03:24.772Z,82.82
2017-11-06T04:04:34.842Z,83.01
2017-11-06T04:05:45.240Z,83.01
2017-11-06T04:06:55.318Z,82.95
2017-11-06T04:08:05.775Z,82.76
2017-11-06T04:09:15.872Z,82.57
2017-11-06T04:10:26.252Z,83.24
2017-11-06T04:11:36.338Z,82.57
2017-11-06T04:12:46.748Z,82.95
2017-11-06T04:13:57.202Z,82.48
2017-11-06T04:15:07.590Z,82.76
2017-11-06T04:16:17.017Z,82.76
2017-11-06T04:17:27.443Z,82.48
2017-11-06T04:18:37.848Z,82.48
2017-11-06T04:19:47.963Z,82.29
2017-11-06T04:20:58.357Z,82.29
2017-11-06T04:22:08.749Z,82.48
2017-11-06T04:23:18.852Z,82.29
2017-11-06T04:24:28.914Z,82.38
2017-11-06T04:25:39.359Z,82.76
2017-11-06T04:26:49.767Z,82.38
2017-11-06T04:28:00.185Z,82.76
2017-11-06T04:29:10.583Z,82.48
2017-11-06T04:30:20.981Z,82.48
2017-11-06T04:31:31.402Z,82.86
2017-11-06T04:32:41.812Z,82.29
2017-11-06T04:33:51.878Z,82.48
2017-11-06T04:35:02.279Z,82.38
2017-11-06T04:36:12.674Z,82.29
2017-11-06T04:37:23.085Z,82.38
2017-11-06T04:38:33.168Z,82.29
2017-11-06T04:39:43.567Z,82.38
2017-11-06T04:40:53.661Z,82.38
2017-11-06T04:42:03.735Z,82.48
2017-11-06T04:43:14.137Z,82.29
2017-11-06T04:44:24.544Z,82.29
2017-11-06T04:45:34.945Z,82.29
2017-11-06T04:46:45.019Z,82.29
2017-11-06T04:47:55.425Z,82.29
2017-11-06T04:49:05.516Z,82.38
2017-11-06T04:50:15.943Z,82.19
2017-11-06T04:51:26.344Z,82.48
2017-11-06T04:52:36.747Z,82.19
2017-11-06T04:53:46.484Z,82.48
2017-11-06T04:54:56.283Z,82.29
2017-11-06T04:56:06.690Z,82.29
2017-11-06T04:57:17.095Z,82.48
2017-11-06T04:58:27.485Z,82.38
2017-11-06T04:59:37.879Z,82.38
2017-11-06T05:00:47.996Z,82.38
2017-11-06T05:01:58.396Z,82.19
2017-11-06T05:03:08.808Z,82.48
2017-11-06T05:04:18.884Z,82.29
2017-11-06T05:05:29.276Z,82.29
2017-11-06T05:06:39.730Z,82.09
2017-11-06T05:07:50.128Z,82.38
2017-11-06T05:09:00.550Z,82.38
2017-11-06T05:10:10.962Z,82.29
2017-11-06T05:11:21.359Z,82.48
2017-11-06T05:12:31.102Z,82.29
2017-11-06T05:13:41.179Z,82.38
2017-11-06T05:14:51.260Z,82.48
2017-11-06T05:16:01.716Z,82.48
2017-11-06T05:17:11.790Z,82.29
2017-11-06T05:18:21.913Z,82.19
2017-11-06T05:19:31.973Z,82.29
2017-11-06T05:20:42.374Z,82.19
2017-11-06T05:21:52.771Z,82.57
2017-11-06T05:23:02.830Z,82.71
2017-11-06T05:24:12.654Z,82.67
2017-11-06T05:25:22.726Z,82.67
2017-11-06T05:26:33.153Z,82.57
2017-11-06T05:27:43.560Z,82.67
2017-11-06T05:28:53.959Z,82.57
2017-11-06T05:30:04.045Z,82.38
2017-11-06T05:31:14.445Z,82.48
2017-11-06T05:32:24.854Z,82.29
2017-11-06T05:33:35.252Z,82.48
2017-11-06T05:34:45.644Z,82.48
2017-11-06T05:35:56.072Z,82.19
2017-11-06T05:37:05.804Z,82.57
2017-11-06T05:38:16.234Z,82.67
2017-11-06T05:39:26.631Z,82.67
2017-11-06T05:40:37.025Z,82.67
2017-11-06T05:41:47.477Z,82.67
2017-11-06T05:42:57.877Z,82.09
2017-11-06T05:44:08.289Z,82.29
2017-11-06T05:45:18.717Z,82.48
2017-11-06T05:46:28.792Z,82.48
2017-11-06T05:47:39.218Z,82.48
2017-11-06T05:48:49.629Z,82.38
2017-11-06T05:50:00.053Z,82.29
2017-11-06T05:51:10.467Z,82.48
2017-11-06T05:52:20.875Z,82.29
2017-11-06T05:53:31.303Z,82.29
2017-11-06T05:54:41.389Z,82.48
2017-11-06T05:55:51.485Z,82.76
2017-11-06T05:57:01.222Z,82.48
2017-11-06T05:58:11.650Z,82.86
2017-11-06T05:59:22.037Z,83.24
2017-11-06T06:00:31.775Z,82.48
2017-11-06T06:01:42.185Z,82.48
2017-11-06T06:02:51.918Z,82.86
2017-11-06T06:04:02.315Z,82.76
2017-11-06T06:05:12.434Z,82.38
2017-11-06T06:06:22.901Z,82.67
2017-11-06T06:07:33.297Z,82.57
2017-11-06T06:08:43.371Z,82.76
2017-11-06T06:09:53.436Z,82.29
2017-11-06T06:11:03.827Z,82.76
2017-11-06T06:12:14.218Z,82.57
2017-11-06T06:13:24.288Z,82.38
2017-11-06T06:14:34.361Z,82.19
2017-11-06T06:15:44.441Z,82.48
2017-11-06T06:16:54.226Z,82.57
2017-11-06T06:18:04.310Z,82.29
2017-11-06T06:19:14.718Z,82.29
2017-11-06T06:20:25.140Z,82.38
2017-11-06T06:21:35.541Z,82.29
2017-11-06T06:22:46.001Z,82.48
2017-11-06T06:23:56.399Z,82.38
2017-11-06T06:25:06.470Z,82.29
2017-11-06T06:26:16.861Z,82.76
2017-11-06T06:27:27.263Z,82.67
2017-11-06T06:28:37.945Z,82.29
2017-11-06T06:29:48.338Z,82.19
2017-11-06T06:30:58.732Z,82.42
2017-11-06T06:32:08.797Z,82.29
2017-11-06T06:33:18.545Z,82.71
2017-11-06T06:34:28.958Z,82.81
2017-11-06T06:35:39.349Z,82.71
2017-11-06T06:36:49.767Z,82.61
2017-11-06T06:37:59.848Z,82.42
2017-11-06T06:39:09.576Z,82.71
2017-11-06T06:40:19.650Z,82.71
2017-11-06T06:41:30.050Z,82.14
2017-11-06T06:42:40.481Z,82.71
2017-11-06T06:43:50.560Z,82.42
2017-11-06T06:45:00.956Z,82.42
2017-11-06T06:46:11.371Z,82.32
2017-11-06T06:47:21.442Z,82.52
2017-11-06T06:48:31.521Z,82.23
2017-11-06T06:49:41.917Z,82.61
2017-11-06T06:50:51.994Z,82.32
2017-11-06T06:52:02.405Z,82.42
2017-11-06T06:53:12.489Z,82.42
2017-11-06T06:54:22.571Z,82.52
2017-11-06T06:55:32.967Z,82.52
2017-11-06T06:56:42.727Z,82.52
2017-11-06T06:57:53.190Z,82.52
2017-11-06T06:59:03.276Z,82.42
2017-11-06T07:00:13.669Z,82.32
2017-11-06T07:01:24.064Z,82.52
2017-11-06T07:02:34.464Z,82.23
2017-11-06T07:03:44.936Z,82.32
2017-11-06T07:04:54.994Z,82.52
2017-11-06T07:06:05.396Z,82.71
2017-11-06T07:07:15.464Z,82.57
2017-11-06T07:08:25.871Z,82.14
2017-11-06T07:09:36.267Z,82.52
2017-11-06T07:10:46.333Z,82.52
2017-11-06T07:11:56.731Z,82.42
2017-11-06T07:13:07.147Z,82.23
2017-11-06T07:14:17.228Z,82.23
2017-11-06T07:15:27.295Z,82.42
2017-11-06T07:16:37.685Z,82.23
2017-11-06T07:17:48.079Z,82.42
2017-11-06T07:18:58.473Z,82.42
2017-11-06T07:20:08.897Z,82.42
2017-11-06T07:21:19.015Z,82.52
2017-11-06T07:22:29.098Z,82.14
2017-11-06T07:23:39.480Z,82.71
2017-11-06T07:24:50.022Z,82.71
2017-11-06T07:26:00.097Z,82.71
2017-11-06T07:27:10.158Z,82.32
2017-11-06T07:28:20.548Z,82.42
2017-11-06T07:29:32.108Z,82.42
2017-11-06T07:30:42.226Z,82.42
2017-11-06T07:31:52.856Z,82.42
2017-11-06T07:33:03.248Z,82.81
2017-11-06T07:34:13.419Z,82.42
2017-11-06T07:35:23.501Z,82.42
2017-11-06T07:36:33.584Z,82.42
2017-11-06T07:37:43.987Z,82.42
2017-11-06T07:38:54.422Z,82.52
2017-11-06T07:40:04.834Z,82.23
2017-11-06T07:41:15.879Z,82.71
2017-11-06T07:42:25.954Z,82.71
2017-11-06T07:43:36.003Z,82.71
2017-11-06T07:44:46.411Z,82.23
2017-11-06T07:45:56.797Z,82.14
2017-11-06T07:47:06.821Z,82.32
2017-11-06T07:48:17.223Z,82.23
2017-11-06T07:49:27.627Z,82.71
2017-11-06T07:50:37.728Z,82.23
2017-11-06T07:51:48.125Z,82.23
2017-11-06T07:52:58.531Z,82.61
2017-11-06T07:54:08.988Z,82.23
2017-11-06T07:55:19.421Z,82.67
2017-11-06T07:56:29.562Z,82.04
2017-11-06T07:57:39.966Z,82.38
2017-11-06T07:58:50.058Z,82.9
2017-11-06T08:00:00.463Z,82.71
2017-11-06T08:01:10.539Z,82.71
2017-11-06T08:02:20.951Z,82.61
2017-11-06T08:03:31.368Z,82.42
2017-11-06T08:04:41.766Z,82.23
2017-11-06T08:05:51.647Z,82.61
2017-11-06T08:07:02.089Z,82.42
2017-11-06T08:08:12.546Z,82.42
2017-11-06T08:09:22.951Z,82.71
2017-11-06T08:10:33.353Z,82.52
2017-11-06T08:11:43.758Z,82.23
2017-11-06T08:12:54.207Z,82.32
2017-11-06T08:14:04.671Z,82.81
2017-11-06T08:15:15.064Z,82.71
2017-11-06T08:16:25.482Z,82.42
2017-11-06T08:17:35.911Z,82.61
2017-11-06T08:18:45.966Z,82.32
2017-11-06T08:19:56.080Z,82.52
2017-11-06T08:21:06.151Z,82.23
2017-11-06T08:22:16.551Z,82.42
2017-11-06T08:23:26.982Z,82.71
2017-11-06T08:24:37.055Z,82.32
2017-11-06T08:25:47.799Z,82.42
2017-11-06T08:26:58.234Z,82.52
2017-11-06T08:28:08.627Z,82.52
2017-11-06T08:29:18.709Z,82.42
2017-11-06T08:30:29.105Z,82.71
2017-11-06T08:31:39.564Z,82.32
2017-11-06T08:32:49.979Z,82.42
2017-11-06T08:34:00.379Z,82.32
2017-11-06T08:35:10.791Z,82.42
2017-11-06T08:36:21.227Z,82.52
2017-11-06T08:37:31.338Z,82.42
2017-11-06T08:38:41.737Z,82.52
2017-11-06T08:39:51.809Z,82.61
2017-11-06T08:41:02.209Z,82.42
2017-11-06T08:42:12.297Z,82.42
2017-11-06T08:43:22.412Z,82.23
2017-11-06T08:44:32.853Z,82.23
2017-11-06T08:45:42.942Z,82.23
2017-11-06T08:46:53.349Z,82.32
2017-11-06T08:48:03.758Z,82.14
2017-11-06T08:49:13.836Z,82.04
2017-11-06T08:50:24.238Z,82.04
2017-11-06T08:51:34.640Z,82.14
2017-11-06T08:52:45.295Z,82.52
2017-11-06T08:53:55.706Z,82.61
2017-11-06T08:55:05.809Z,82.71
2017-11-06T08:56:16.232Z,82.81
2017-11-06T08:57:26.652Z,82.52
2017-11-06T08:58:37.076Z,82.23
2017-11-06T08:59:47.491Z,82.23
2017-11-06T09:00:57.601Z,82.61
2017-11-06T09:02:08.016Z,82.61
2017-11-06T09:03:18.418Z,82.52
2017-11-06T09:04:28.844Z,82.29
2017-11-06T09:05:39.255Z,82.42
2017-11-06T09:06:49.664Z,82.67
2017-11-06T09:07:59.416Z,82.67
2017-11-06T09:09:09.484Z,82.38
2017-11-06T09:10:19.868Z,82.19
2017-11-06T09:11:30.271Z,82.38
2017-11-06T09:12:40.662Z,82.38
2017-11-06T09:13:51.877Z,82.48
2017-11-06T09:15:01.931Z,82.76
2017-11-06T09:16:13.036Z,82.81
2017-11-06T09:17:23.105Z,82.81
2017-11-06T09:18:33.231Z,82.67
2017-11-06T09:19:43.637Z,82.61
2017-11-06T09:20:54.059Z,82.61
2017-11-06T09:22:04.488Z,82.71
2017-11-06T09:23:14.908Z,82.9
2017-11-06T09:24:25.079Z,82.71
2017-11-06T09:25:35.519Z,82.71
2017-11-06T09:26:45.580Z,82.61
2017-11-06T09:27:55.980Z,82.52
2017-11-06T09:29:06.386Z,82.04
2017-11-06T09:30:16.515Z,82.14
2017-11-06T09:31:26.592Z,82.52
2017-11-06T09:32:37.017Z,82.42
2017-11-06T09:33:47.402Z,82.04
2017-11-06T09:34:57.829Z,82.52
2017-11-06T09:36:08.255Z,82.42
2017-11-06T09:37:18.654Z,82.42
2017-11-06T09:38:29.064Z,82.23
2017-11-06T09:39:39.497Z,82.52
2017-11-06T09:40:49.909Z,82.61
2017-11-06T09:42:00.324Z,82.71
2017-11-06T09:43:10.875Z,82.81
2017-11-06T09:44:21.294Z,82.23
2017-11-06T09:45:31.947Z,82.61
2017-11-06T09:46:42.349Z,82.9
2017-11-06T09:47:52.740Z,82.9
2017-11-06T09:49:03.040Z,82.71
2017-11-06T09:50:13.142Z,82.71
2017-11-06T09:51:23.584Z,82.61
2017-11-06T09:52:34.075Z,82.42
2017-11-06T09:53:44.559Z,82.61
2017-11-06T09:54:54.961Z,82.52
2017-11-06T09:56:05.048Z,82.42
2017-11-06T09:57:15.470Z,82.52
2017-11-06T09:58:25.905Z,82.04
2017-11-06T09:59:49.238Z,82.71
2017-11-06T10:00:59.655Z,82.52
2017-11-06T10:02:09.404Z,82.29
2017-11-06T10:03:19.814Z,82.29
2017-11-06T10:04:30.224Z,82.57
2017-11-06T10:05:40.678Z,82.19
2017-11-06T10:06:50.443Z,82.42
2017-11-06T10:08:00.529Z,82.71
2017-11-06T10:09:10.616Z,82.81
2017-11-06T10:10:21.032Z,82.71
2017-11-06T10:11:31.474Z,82.71
2017-11-06T10:12:41.903Z,82.71
2017-11-06T10:13:52.322Z,82.61
2017-11-06T10:15:02.738Z,82.71
2017-11-06T10:16:13.319Z,82.32
2017-11-06T10:17:23.739Z,82.32
2017-11-06T10:18:34.157Z,82.14
2017-11-06T10:19:44.563Z,81.95
2017-11-06T10:20:54.655Z,82.04
2017-11-06T10:22:04.792Z,82.04
2017-11-06T10:23:15.209Z,81.85
2017-11-06T10:24:24.968Z,81.95
2017-11-06T10:25:35.394Z,81.85
2017-11-06T10:26:45.843Z,82.04
2017-11-06T10:27:55.955Z,81.7
2017-11-06T10:29:06.406Z,82.23
2017-11-06T10:30:16.795Z,82.04
2017-11-06T10:31:27.213Z,82.14
2017-11-06T10:32:37.648Z,81.85
2017-11-06T10:33:47.743Z,82.08
2017-11-06T10:34:57.818Z,82.04
2017-11-06T10:36:08.244Z,81.99
2017-11-06T10:37:18.646Z,82.52
2017-11-06T10:38:29.060Z,82.42
2017-11-06T10:39:39.511Z,82.23
2017-11-06T10:40:49.646Z,82.14
2017-11-06T10:41:59.706Z,82.32
2017-11-06T10:43:09.776Z,82.23
2017-11-06T10:44:19.865Z,82.23
2017-11-06T10:45:30.277Z,82.23
2017-11-06T10:46:40.689Z,82.23
2017-11-06T10:47:51.093Z,82.23
2017-11-06T10:49:01.486Z,82.23
2017-11-06T10:50:11.894Z,82.52
2017-11-06T10:51:22.363Z,82.42
2017-11-06T10:52:32.809Z,82.52
2017-11-06T10:53:43.235Z,82.52
2017-11-06T10:54:53.665Z,82.42
2017-11-06T10:56:04.075Z,82.23
2017-11-06T10:57:14.491Z,82.61
2017-11-06T10:58:24.902Z,82.42
2017-11-06T10:59:35.311Z,82.61
2017-11-06T11:00:45.727Z,82.42
2017-11-06T11:01:56.158Z,82.52
2017-11-06T11:03:06.577Z,82.61
2017-11-06T11:04:16.988Z,82.71
2017-11-06T11:05:27.384Z,82.9
2017-11-06T11:06:37.796Z,82.04
2017-11-06T11:07:47.897Z,82.52
2017-11-06T11:08:58.310Z,82.81
2017-11-06T11:10:08.398Z,82.67
2017-11-06T11:11:18.813Z,82.61
2017-11-06T11:12:29.219Z,82.81
2017-11-06T11:13:39.671Z,82.52
2017-11-06T11:14:50.125Z,82.23
2017-11-06T11:16:00.540Z,82.32
2017-11-06T11:17:10.989Z,82.14
2017-11-06T11:18:21.410Z,82.42
2017-11-06T11:19:31.492Z,82.42
2017-11-06T11:20:42.289Z,82.42
2017-11-06T11:21:52.415Z,82.71
2017-11-06T11:23:02.495Z,82.61
2017-11-06T11:24:12.911Z,82.42
2017-11-06T11:25:23.338Z,82.81
2017-11-06T11:26:33.795Z,82.81
2017-11-06T11:27:44.200Z,82.42
2017-11-06T11:28:54.285Z,82.67
2017-11-06T11:30:04.693Z,82.9
2017-11-06T11:31:14.781Z,82.67
2017-11-06T11:32:25.249Z,82.67
2017-11-06T11:33:35.657Z,82.67
2017-11-06T11:34:46.069Z,82.67
2017-11-06T11:35:56.517Z,82.42
2017-11-06T11:37:06.611Z,82.38
2017-11-06T11:38:16.744Z,82.67
2017-11-06T11:39:26.832Z,82.67
2017-11-06T11:40:36.926Z,82.67
2017-11-06T11:41:47.347Z,82.86
2017-11-06T11:42:57.410Z,82.86
2017-11-06T11:44:07.882Z,82.38
2017-11-06T11:45:18.312Z,82.57
2017-11-06T11:46:28.742Z,82.76
2017-11-06T11:47:39.269Z,82.76
2017-11-06T11:48:49.349Z,82.67
2017-11-06T11:49:59.431Z,82.29
2017-11-06T11:51:09.539Z,82.48
2017-11-06T11:52:19.964Z,82.57
2017-11-06T11:53:30.380Z,82.67
2017-11-06T11:54:40.801Z,82.76
2017-11-06T11:55:51.217Z,82.86
2017-11-06T11:57:01.320Z,82.86
2017-11-06T11:58:11.735Z,82.67
2017-11-06T11:59:22.154Z,82.57
2017-11-06T12:00:32.559Z,82.57
2017-11-06T12:01:42.983Z,82.76
2017-11-06T12:02:53.408Z,82.19
2017-11-06T12:04:03.816Z,82.38
2017-11-06T12:05:14.242Z,82
2017-11-06T12:06:24.653Z,82.19
2017-11-06T12:07:35.107Z,82.67
2017-11-06T12:08:45.516Z,82.29
2017-11-06T12:09:55.943Z,82.09
2017-11-06T12:11:06.361Z,82.38
2017-11-06T12:12:16.779Z,82.67
2017-11-06T12:13:27.227Z,82.38
2017-11-06T12:14:37.336Z,82.57
2017-11-06T12:15:47.744Z,82.76
2017-11-06T12:16:58.155Z,82.38
2017-11-06T12:18:08.593Z,82.57
2017-11-06T12:19:19.082Z,82.29
2017-11-06T12:20:29.498Z,82.19
2017-11-06T12:21:39.568Z,82.19
2017-11-06T12:22:49.653Z,82.38
2017-11-06T12:24:00.100Z,81.81
2017-11-06T12:25:10.579Z,81.9
2017-11-06T12:26:20.985Z,82
2017-11-06T12:27:31.402Z,81.71
2017-11-06T12:28:41.845Z,82.09
2017-11-06T12:29:52.274Z,81.37
2017-11-06T12:31:02.752Z,81.37
2017-11-06T12:32:12.503Z,81.95
2017-11-06T12:33:22.605Z,81.85
2017-11-06T12:34:33.003Z,81.85
2017-11-06T12:35:43.431Z,81.56
2017-11-06T12:36:53.586Z,81.27
2017-11-06T12:38:03.980Z,81.95
2017-11-06T12:39:14.076Z,81.27
2017-11-06T12:40:24.487Z,81.85
2017-11-06T12:41:34.914Z,81.27
2017-11-06T12:42:45.016Z,81.47
2017-11-06T12:43:56.425Z,82.32
2017-11-06T12:45:06.873Z,81.95
2017-11-06T12:46:17.296Z,82.14
2017-11-06T12:47:27.708Z,82.23
2017-11-06T12:48:38.181Z,82
2017-11-06T12:49:48.590Z,82
2017-11-06T12:50:58.981Z,82
2017-11-06T12:52:09.425Z,82.09
2017-11-06T12:53:19.855Z,82
2017-11-06T12:54:30.315Z,82
2017-11-06T12:55:40.747Z,82
2017-11-06T12:56:51.174Z,82.04
2017-11-06T12:58:01.601Z,82
2017-11-06T12:59:12.016Z,81.95
2017-11-06T13:00:22.483Z,82
2017-11-06T13:01:32.898Z,81.85
2017-11-06T13:02:43.325Z,81.81
2017-11-06T13:03:53.433Z,81.81
2017-11-06T13:05:03.842Z,82.19
2017-11-06T13:06:14.248Z,82.09
2017-11-06T13:07:24.652Z,82.04
2017-11-06T13:08:35.053Z,81.47
2017-11-06T13:09:45.454Z,81.85
2017-11-06T13:10:55.867Z,81.37
2017-11-06T13:12:05.616Z,81.85
2017-11-06T13:13:15.722Z,81.66
2017-11-06T13:14:26.133Z,81.56
2017-11-06T13:15:36.551Z,81.47
2017-11-06T13:16:46.646Z,81.37
2017-11-06T13:17:57.035Z,81.66
2017-11-06T13:19:07.452Z,81.85
2017-11-06T13:20:17.539Z,81.66
2017-11-06T13:21:27.959Z,82.04
2017-11-06T13:22:38.041Z,81.27
2017-11-06T13:23:48.470Z,82.23
2017-11-06T13:24:58.532Z,82.32
2017-11-06T13:26:08.603Z,81.95
2017-11-06T13:27:18.349Z,82.04
2017-11-06T13:28:28.766Z,82.14
2017-11-06T13:29:39.212Z,82.32
2017-11-06T13:30:49.625Z,81.85
2017-11-06T13:32:00.057Z,82.09
2017-11-06T13:33:10.482Z,82.14
2017-11-06T13:34:20.988Z,82.04
2017-11-06T13:35:31.378Z,82.04
2017-11-06T13:36:41.790Z,81.95
2017-11-06T13:37:52.212Z,82.32
2017-11-06T13:39:02.630Z,81.9
2017-11-06T13:40:13.281Z,82.14
2017-11-06T13:41:23.388Z,82.04
2017-11-06T13:42:33.781Z,82.14
2017-11-06T13:43:44.168Z,81.85
2017-11-06T13:44:54.584Z,82.42
2017-11-06T13:46:05.047Z,82.19
2017-11-06T13:47:15.475Z,82.19
2017-11-06T13:48:25.894Z,82.19
2017-11-06T13:49:36.315Z,82.48
2017-11-06T13:50:46.731Z,82
2017-11-06T13:51:57.182Z,82.48
2017-11-06T13:53:07.600Z,82.57
2017-11-06T13:54:18.019Z,82.09
2017-11-06T13:55:29.643Z,82.76
2017-11-06T13:56:39.742Z,82.57
2017-11-06T13:57:50.203Z,82.48
2017-11-06T13:58:59.946Z,82.48
2017-11-06T14:00:10.020Z,82.42
2017-11-06T14:01:20.427Z,82.19
2017-11-06T14:02:30.829Z,82.38
2017-11-06T14:03:41.330Z,81.85
2017-11-06T14:04:51.740Z,82.14
2017-11-06T14:06:01.521Z,81.76
2017-11-06T14:07:11.970Z,81.76
2017-11-06T14:08:22.055Z,81.95
2017-11-06T14:09:32.461Z,81.95
2017-11-06T14:10:42.864Z,82.04
2017-11-06T14:11:52.929Z,82.23
2017-11-06T14:13:03.355Z,82.04
2017-11-06T14:14:13.451Z,82.14
2017-11-06T14:15:23.894Z,82.23
2017-11-06T14:16:33.650Z,82.04
2017-11-06T14:17:44.091Z,82.23
2017-11-06T14:18:54.512Z,82.32
2017-11-06T14:20:04.909Z,82.32
2017-11-06T14:21:15.377Z,82.32
2017-11-06T14:22:25.809Z,82.42
2017-11-06T14:23:36.233Z,82.61
2017-11-06T14:24:46.334Z,82.71
2017-11-06T14:25:56.748Z,82.81
2017-11-06T14:27:06.867Z,82.67
2017-11-06T14:28:17.280Z,82.76
2017-11-06T14:29:27.719Z,82.67
2017-11-06T14:30:37.805Z,82.67
2017-11-06T14:31:47.884Z,82.57
2017-11-06T14:32:58.339Z,82.48
2017-11-06T14:34:08.433Z,82.67
2017-11-06T14:35:18.852Z,82.57
2017-11-06T14:36:29.281Z,82.57
2017-11-06T14:37:39.340Z,82.67
2017-11-06T14:38:50.055Z,82.57
2017-11-06T14:40:00.464Z,82.38
2017-11-06T14:41:10.561Z,82.43
2017-11-06T14:42:20.987Z,82.15
2017-11-06T14:43:31.074Z,82.34
2017-11-06T14:44:42.738Z,82.34
2017-11-06T14:45:53.148Z,82.24
2017-11-06T14:47:03.244Z,82.24
2017-11-06T14:48:13.348Z,82.15
2017-11-06T14:49:23.454Z,82.24
2017-11-06T14:50:33.594Z,82.06
2017-11-06T14:51:43.673Z,82.06
2017-11-06T14:52:53.747Z,82.24
2017-11-06T14:54:03.842Z,82.24
2017-11-06T14:55:14.252Z,82.34
2017-11-06T14:56:24.042Z,82.34
2017-11-06T14:57:34.468Z,82.24
2017-11-06T14:58:44.562Z,82.34
2017-11-06T14:59:54.976Z,82.43
2017-11-06T15:01:05.379Z,82.43
2017-11-06T15:02:14.844Z,82.43
2017-11-06T15:03:25.251Z,82.24
2017-11-06T15:04:35.331Z,82.24
2017-11-06T15:05:45.074Z,82.4
2017-11-06T15:06:54.841Z,82.4
2017-11-06T15:08:04.971Z,82.4
2017-11-06T15:09:15.407Z,82.43
2017-11-06T15:10:25.792Z,82.24
2017-11-06T15:11:35.892Z,82.43
2017-11-06T15:12:45.976Z,82.49
2017-11-06T15:13:56.444Z,82.4
2017-11-06T15:15:06.522Z,82.4
2017-11-06T15:16:16.949Z,82.3
2017-11-06T15:17:27.361Z,82.4
2017-11-06T15:18:37.792Z,82.11
2017-11-06T15:19:48.353Z,82.2
2017-11-06T15:20:58.783Z,82.2
2017-11-06T15:22:09.211Z,82.3
2017-11-06T15:23:19.629Z,82.11
2017-11-06T15:24:29.695Z,82.3
2017-11-06T15:25:39.813Z,82.3
2017-11-06T15:26:49.912Z,82.4
2017-11-06T15:28:00.509Z,82.2
2017-11-06T15:29:11.417Z,82.2
2017-11-06T15:30:21.813Z,82.49
2017-11-06T15:31:32.230Z,82.2
2017-11-06T15:32:42.483Z,82.68
2017-11-06T15:33:52.891Z,82.59
2017-11-06T15:35:03.354Z,82.49
2017-11-06T15:36:13.389Z,82.68
2017-11-06T15:37:23.522Z,82.3
2017-11-06T15:38:33.934Z,82.87